sensor_id;sensor_type;location;lat;lon;timestamp;temperature;humidity
18880;DHT22;9572;52.378;13.404;2024-03-02T00:00:58;7.00;99.90
18880;DHT22;9572;52.378;13.404;2024-03-02T00:03:25;7.10;99.90
18880;DHT22;9572;52.378;13.404;2024-03-02T00:05:52;7.10;99.90
18880;DHT22;9572;52.378;13.404;2024-03-02T00:08:24;7.20;99.90
18880;DHT22;9572;52.378;13.404;2024-03-02T00:10:53;7.20;99.90
18880;DHT22;9572;52.378;13.404;2024-03-02T00:13:23;7.20;99.90
18880;DHT22;9572;52.378;13.404;2024-03-02T00:15:54;7.20;99.90
18880;DHT22;9572;52.378;13.404;2024-03-02T00:18:24;7.20;99.90
18880;DHT22;9572;52.378;13.404;2024-03-02T00:20:53;7.20;99.90
18880;DHT22;9572;52.378;13.404;2024-03-02T00:23:20;7.30;99.90
18880;DHT22;9572;52.378;13.404;2024-03-02T00:25:48;7.30;99.90
18880;DHT22;9572;52.378;13.404;2024-03-02T00:28:18;7.30;99.90
18880;DHT22;9572;52.378;13.404;2024-03-02T00:30:55;7.30;99.90
18880;DHT22;9572;52.378;13.404;2024-03-02T00:33:23;7.40;99.90
18880;DHT22;9572;52.378;13.404;2024-03-02T00:35:50;7.40;99.90
18880;DHT22;9572;52.378;13.404;2024-03-02T00:38:17;7.40;99.90
18880;DHT22;9572;52.378;13.404;2024-03-02T00:40:44;7.40;99.90
18880;DHT22;9572;52.378;13.404;2024-03-02T00:43:37;7.40;99.90
18880;DHT22;9572;52.378;13.404;2024-03-02T00:46:07;7.40;99.90
18880;DHT22;9572;52.378;13.404;2024-03-02T00:48:34;7.40;99.90
18880;DHT22;9572;52.378;13.404;2024-03-02T00:51:02;7.50;99.90
18880;DHT22;9572;52.378;13.404;2024-03-02T00:53:30;7.50;99.90
18880;DHT22;9572;52.378;13.404;2024-03-02T00:55:58;7.50;99.90
18880;DHT22;9572;52.378;13.404;2024-03-02T00:58:25;7.50;99.90
18880;DHT22;9572;52.378;13.404;2024-03-02T01:00:52;7.50;99.90
18880;DHT22;9572;52.378;13.404;2024-03-02T01:03:20;7.60;99.90
18880;DHT22;9572;52.378;13.404;2024-03-02T01:05:47;7.60;99.90
18880;DHT22;9572;52.378;13.404;2024-03-02T01:08:14;7.50;99.90
18880;DHT22;9572;52.378;13.404;2024-03-02T01:10:41;7.50;99.90
18880;DHT22;9572;52.378;13.404;2024-03-02T01:13:08;7.40;99.90
18880;DHT22;9572;52.378;13.404;2024-03-02T01:15:34;7.50;99.90
18880;DHT22;9572;52.378;13.404;2024-03-02T01:18:01;7.50;99.90
18880;DHT22;9572;52.378;13.404;2024-03-02T01:20:30;7.50;99.90
18880;DHT22;9572;52.378;13.404;2024-03-02T01:22:57;7.50;99.90
18880;DHT22;9572;52.378;13.404;2024-03-02T01:25:24;7.60;99.90
18880;DHT22;9572;52.378;13.404;2024-03-02T01:27:50;7.60;99.90
18880;DHT22;9572;52.378;13.404;2024-03-02T01:30:17;7.60;99.90
18880;DHT22;9572;52.378;13.404;2024-03-02T01:32:44;7.60;99.90
18880;DHT22;9572;52.378;13.404;2024-03-02T01:35:11;7.60;99.90
18880;DHT22;9572;52.378;13.404;2024-03-02T01:37:39;7.50;99.90
18880;DHT22;9572;52.378;13.404;2024-03-02T01:40:07;7.50;99.90
18880;DHT22;9572;52.378;13.404;2024-03-02T01:42:36;7.50;99.90
18880;DHT22;9572;52.378;13.404;2024-03-02T01:45:04;7.50;99.90
18880;DHT22;9572;52.378;13.404;2024-03-02T01:47:31;7.60;99.90
18880;DHT22;9572;52.378;13.404;2024-03-02T01:49:59;7.50;99.90
18880;DHT22;9572;52.378;13.404;2024-03-02T01:52:27;7.60;99.90
18880;DHT22;9572;52.378;13.404;2024-03-02T01:54:56;7.60;99.90
18880;DHT22;9572;52.378;13.404;2024-03-02T01:57:23;7.60;99.90
18880;DHT22;9572;52.378;13.404;2024-03-02T01:59:50;7.60;99.90
18880;DHT22;9572;52.378;13.404;2024-03-02T02:02:17;7.50;99.90
18880;DHT22;9572;52.378;13.404;2024-03-02T02:04:44;7.60;99.90
18880;DHT22;9572;52.378;13.404;2024-03-02T02:07:11;7.60;99.90
18880;DHT22;9572;52.378;13.404;2024-03-02T02:09:40;7.60;99.90
18880;DHT22;9572;52.378;13.404;2024-03-02T02:12:08;7.60;99.90
18880;DHT22;9572;52.378;13.404;2024-03-02T02:14:36;7.60;99.90
18880;DHT22;9572;52.378;13.404;2024-03-02T02:17:03;7.60;99.90
18880;DHT22;9572;52.378;13.404;2024-03-02T02:19:30;7.60;99.90
18880;DHT22;9572;52.378;13.404;2024-03-02T02:21:58;7.60;99.90
18880;DHT22;9572;52.378;13.404;2024-03-02T02:24:25;7.60;99.90
18880;DHT22;9572;52.378;13.404;2024-03-02T02:26:52;7.60;99.90
18880;DHT22;9572;52.378;13.404;2024-03-02T02:29:18;7.60;99.90
18880;DHT22;9572;52.378;13.404;2024-03-02T02:31:45;7.60;99.90
18880;DHT22;9572;52.378;13.404;2024-03-02T02:34:14;7.60;99.90
18880;DHT22;9572;52.378;13.404;2024-03-02T02:36:41;7.60;99.90
18880;DHT22;9572;52.378;13.404;2024-03-02T02:39:13;7.60;99.90
18880;DHT22;9572;52.378;13.404;2024-03-02T02:41:41;7.60;99.90
18880;DHT22;9572;52.378;13.404;2024-03-02T02:44:07;7.70;99.90
18880;DHT22;9572;52.378;13.404;2024-03-02T02:46:37;7.70;99.90
18880;DHT22;9572;52.378;13.404;2024-03-02T02:49:04;7.70;99.90
18880;DHT22;9572;52.378;13.404;2024-03-02T02:51:31;7.80;99.90
18880;DHT22;9572;52.378;13.404;2024-03-02T02:53:58;7.80;99.90
18880;DHT22;9572;52.378;13.404;2024-03-02T02:56:26;7.80;99.90
18880;DHT22;9572;52.378;13.404;2024-03-02T02:58:53;7.80;99.90
18880;DHT22;9572;52.378;13.404;2024-03-02T03:01:20;7.80;99.90
18880;DHT22;9572;52.378;13.404;2024-03-02T03:03:47;7.90;99.90
18880;DHT22;9572;52.378;13.404;2024-03-02T03:06:13;7.90;99.90
18880;DHT22;9572;52.378;13.404;2024-03-02T03:08:41;8.00;99.90
18880;DHT22;9572;52.378;13.404;2024-03-02T03:11:07;8.00;99.90
18880;DHT22;9572;52.378;13.404;2024-03-02T03:13:36;8.00;99.90
18880;DHT22;9572;52.378;13.404;2024-03-02T03:16:03;8.00;99.90
18880;DHT22;9572;52.378;13.404;2024-03-02T03:18:31;8.10;99.90
18880;DHT22;9572;52.378;13.404;2024-03-02T03:20:58;8.10;99.90
18880;DHT22;9572;52.378;13.404;2024-03-02T03:23:24;8.10;99.90
18880;DHT22;9572;52.378;13.404;2024-03-02T03:25:51;8.10;99.90
18880;DHT22;9572;52.378;13.404;2024-03-02T03:28:18;8.10;99.90
18880;DHT22;9572;52.378;13.404;2024-03-02T03:30:46;8.10;99.90
18880;DHT22;9572;52.378;13.404;2024-03-02T03:33:13;8.10;99.90
18880;DHT22;9572;52.378;13.404;2024-03-02T03:35:40;8.10;99.90
18880;DHT22;9572;52.378;13.404;2024-03-02T03:38:07;8.10;99.90
18880;DHT22;9572;52.378;13.404;2024-03-02T03:40:34;8.20;99.90
18880;DHT22;9572;52.378;13.404;2024-03-02T03:43:01;8.20;99.90
18880;DHT22;9572;52.378;13.404;2024-03-02T03:45:28;8.20;99.90
18880;DHT22;9572;52.378;13.404;2024-03-02T03:47:57;8.20;99.90
18880;DHT22;9572;52.378;13.404;2024-03-02T03:50:24;8.20;99.90
18880;DHT22;9572;52.378;13.404;2024-03-02T03:52:51;8.20;99.90
18880;DHT22;9572;52.378;13.404;2024-03-02T03:55:18;8.20;99.90
18880;DHT22;9572;52.378;13.404;2024-03-02T03:57:44;8.30;99.90
18880;DHT22;9572;52.378;13.404;2024-03-02T04:00:12;8.30;99.90
18880;DHT22;9572;52.378;13.404;2024-03-02T04:02:39;8.30;99.90
18880;DHT22;9572;52.378;13.404;2024-03-02T04:05:08;8.30;99.90
18880;DHT22;9572;52.378;13.404;2024-03-02T04:07:36;8.30;99.90
18880;DHT22;9572;52.378;13.404;2024-03-02T04:10:07;8.20;99.90
18880;DHT22;9572;52.378;13.404;2024-03-02T04:12:35;8.20;99.90
18880;DHT22;9572;52.378;13.404;2024-03-02T04:15:04;8.20;99.90
18880;DHT22;9572;52.378;13.404;2024-03-02T04:17:32;8.20;99.90
18880;DHT22;9572;52.378;13.404;2024-03-02T04:19:59;8.20;99.90
18880;DHT22;9572;52.378;13.404;2024-03-02T04:22:28;8.30;99.90
18880;DHT22;9572;52.378;13.404;2024-03-02T04:24:54;8.30;99.90
18880;DHT22;9572;52.378;13.404;2024-03-02T04:27:22;8.30;99.90
18880;DHT22;9572;52.378;13.404;2024-03-02T04:29:48;8.40;99.90
18880;DHT22;9572;52.378;13.404;2024-03-02T04:32:15;8.40;99.90
18880;DHT22;9572;52.378;13.404;2024-03-02T04:34:42;8.40;99.90
18880;DHT22;9572;52.378;13.404;2024-03-02T04:37:11;8.50;99.90
18880;DHT22;9572;52.378;13.404;2024-03-02T04:39:41;8.50;99.90
18880;DHT22;9572;52.378;13.404;2024-03-02T04:42:08;8.40;99.90
18880;DHT22;9572;52.378;13.404;2024-03-02T04:44:34;8.50;99.90
18880;DHT22;9572;52.378;13.404;2024-03-02T04:47:02;8.50;99.90
18880;DHT22;9572;52.378;13.404;2024-03-02T04:49:29;8.50;99.90
18880;DHT22;9572;52.378;13.404;2024-03-02T04:51:56;8.50;99.90
18880;DHT22;9572;52.378;13.404;2024-03-02T04:54:23;8.50;99.90
18880;DHT22;9572;52.378;13.404;2024-03-02T04:56:51;8.50;99.90
18880;DHT22;9572;52.378;13.404;2024-03-02T04:59:19;8.50;99.90
18880;DHT22;9572;52.378;13.404;2024-03-02T05:01:46;8.60;99.90
18880;DHT22;9572;52.378;13.404;2024-03-02T05:04:13;8.70;99.90
18880;DHT22;9572;52.378;13.404;2024-03-02T05:06:40;8.70;99.90
18880;DHT22;9572;52.378;13.404;2024-03-02T05:09:07;8.70;99.90
18880;DHT22;9572;52.378;13.404;2024-03-02T05:11:34;8.60;99.90
18880;DHT22;9572;52.378;13.404;2024-03-02T05:14:20;8.60;99.90
18880;DHT22;9572;52.378;13.404;2024-03-02T05:16:47;8.60;99.90
18880;DHT22;9572;52.378;13.404;2024-03-02T05:19:14;8.60;99.90
18880;DHT22;9572;52.378;13.404;2024-03-02T05:21:40;8.60;99.90
18880;DHT22;9572;52.378;13.404;2024-03-02T05:24:07;8.50;99.90
18880;DHT22;9572;52.378;13.404;2024-03-02T05:26:34;8.50;99.90
18880;DHT22;9572;52.378;13.404;2024-03-02T05:29:01;8.60;99.90
18880;DHT22;9572;52.378;13.404;2024-03-02T05:31:29;8.60;99.90
18880;DHT22;9572;52.378;13.404;2024-03-02T05:33:57;8.60;99.90
18880;DHT22;9572;52.378;13.404;2024-03-02T05:36:24;8.60;99.90
18880;DHT22;9572;52.378;13.404;2024-03-02T05:38:51;8.60;99.90
18880;DHT22;9572;52.378;13.404;2024-03-02T05:41:18;8.60;99.90
18880;DHT22;9572;52.378;13.404;2024-03-02T05:43:45;8.50;99.90
18880;DHT22;9572;52.378;13.404;2024-03-02T05:46:12;8.50;99.90
18880;DHT22;9572;52.378;13.404;2024-03-02T05:48:40;8.50;99.90
18880;DHT22;9572;52.378;13.404;2024-03-02T05:51:07;8.50;99.90
18880;DHT22;9572;52.378;13.404;2024-03-02T05:53:34;8.60;99.90
18880;DHT22;9572;52.378;13.404;2024-03-02T05:56:04;8.60;99.90
18880;DHT22;9572;52.378;13.404;2024-03-02T05:58:31;8.60;99.90
18880;DHT22;9572;52.378;13.404;2024-03-02T06:01:13;8.50;99.90
18880;DHT22;9572;52.378;13.404;2024-03-02T06:03:41;8.50;99.90
18880;DHT22;9572;52.378;13.404;2024-03-02T06:06:08;8.60;99.90
18880;DHT22;9572;52.378;13.404;2024-03-02T06:08:35;8.60;99.90
18880;DHT22;9572;52.378;13.404;2024-03-02T06:11:02;8.60;99.90
18880;DHT22;9572;52.378;13.404;2024-03-02T06:13:29;8.50;99.90
18880;DHT22;9572;52.378;13.404;2024-03-02T06:15:56;8.50;99.90
18880;DHT22;9572;52.378;13.404;2024-03-02T06:18:23;8.50;99.90
18880;DHT22;9572;52.378;13.404;2024-03-02T06:20:51;8.50;99.90
18880;DHT22;9572;52.378;13.404;2024-03-02T06:23:18;8.50;99.90
18880;DHT22;9572;52.378;13.404;2024-03-02T06:25:45;8.50;99.90
18880;DHT22;9572;52.378;13.404;2024-03-02T06:28:12;8.50;99.90
18880;DHT22;9572;52.378;13.404;2024-03-02T06:30:41;8.50;99.90
18880;DHT22;9572;52.378;13.404;2024-03-02T06:33:07;8.50;99.90
18880;DHT22;9572;52.378;13.404;2024-03-02T06:35:34;8.50;99.90
18880;DHT22;9572;52.378;13.404;2024-03-02T06:38:03;8.50;99.90
18880;DHT22;9572;52.378;13.404;2024-03-02T06:40:30;8.50;99.90
18880;DHT22;9572;52.378;13.404;2024-03-02T06:42:57;8.50;99.90
18880;DHT22;9572;52.378;13.404;2024-03-02T06:45:24;8.50;99.90
18880;DHT22;9572;52.378;13.404;2024-03-02T06:47:50;8.50;99.90
18880;DHT22;9572;52.378;13.404;2024-03-02T06:50:17;8.50;99.90
18880;DHT22;9572;52.378;13.404;2024-03-02T06:52:44;8.60;99.90
18880;DHT22;9572;52.378;13.404;2024-03-02T06:55:12;8.60;99.90
18880;DHT22;9572;52.378;13.404;2024-03-02T06:57:39;8.60;99.90
18880;DHT22;9572;52.378;13.404;2024-03-02T07:00:07;8.60;99.90
18880;DHT22;9572;52.378;13.404;2024-03-02T07:02:34;8.60;99.90
18880;DHT22;9572;52.378;13.404;2024-03-02T07:05:01;8.60;99.90
18880;DHT22;9572;52.378;13.404;2024-03-02T07:07:28;8.60;99.90
18880;DHT22;9572;52.378;13.404;2024-03-02T07:09:56;8.70;99.90
18880;DHT22;9572;52.378;13.404;2024-03-02T07:12:24;8.60;99.90
18880;DHT22;9572;52.378;13.404;2024-03-02T07:14:51;8.60;99.90
18880;DHT22;9572;52.378;13.404;2024-03-02T07:17:33;8.60;99.90
18880;DHT22;9572;52.378;13.404;2024-03-02T07:20:03;8.60;99.90
18880;DHT22;9572;52.378;13.404;2024-03-02T07:22:30;8.70;99.90
18880;DHT22;9572;52.378;13.404;2024-03-02T07:24:57;8.70;99.90
18880;DHT22;9572;52.378;13.404;2024-03-02T07:27:25;8.70;99.90
18880;DHT22;9572;52.378;13.404;2024-03-02T07:29:52;8.60;99.90
18880;DHT22;9572;52.378;13.404;2024-03-02T07:32:19;8.70;99.90
18880;DHT22;9572;52.378;13.404;2024-03-02T07:34:45;8.70;99.90
18880;DHT22;9572;52.378;13.404;2024-03-02T07:37:12;8.70;99.90
18880;DHT22;9572;52.378;13.404;2024-03-02T07:39:39;8.70;99.90
18880;DHT22;9572;52.378;13.404;2024-03-02T07:42:06;8.70;99.90
18880;DHT22;9572;52.378;13.404;2024-03-02T07:44:34;8.70;99.90
18880;DHT22;9572;52.378;13.404;2024-03-02T07:47:01;8.70;99.90
18880;DHT22;9572;52.378;13.404;2024-03-02T07:49:28;8.70;99.90
18880;DHT22;9572;52.378;13.404;2024-03-02T07:51:55;8.70;99.90
18880;DHT22;9572;52.378;13.404;2024-03-02T07:54:22;8.70;99.90
18880;DHT22;9572;52.378;13.404;2024-03-02T07:56:49;8.70;99.90
18880;DHT22;9572;52.378;13.404;2024-03-02T07:59:16;8.70;99.90
18880;DHT22;9572;52.378;13.404;2024-03-02T08:01:44;8.70;99.90
18880;DHT22;9572;52.378;13.404;2024-03-02T08:04:11;8.90;99.90
18880;DHT22;9572;52.378;13.404;2024-03-02T08:06:38;8.90;99.90
18880;DHT22;9572;52.378;13.404;2024-03-02T08:09:05;8.90;99.90
18880;DHT22;9572;52.378;13.404;2024-03-02T08:11:35;8.90;99.90
18880;DHT22;9572;52.378;13.404;2024-03-02T08:14:02;9.00;99.90
18880;DHT22;9572;52.378;13.404;2024-03-02T08:16:30;9.00;99.90
18880;DHT22;9572;52.378;13.404;2024-03-02T08:18:58;9.00;99.90
18880;DHT22;9572;52.378;13.404;2024-03-02T08:21:26;9.00;99.90
18880;DHT22;9572;52.378;13.404;2024-03-02T08:23:56;8.90;99.90
18880;DHT22;9572;52.378;13.404;2024-03-02T08:26:23;8.90;99.90
18880;DHT22;9572;52.378;13.404;2024-03-02T08:28:50;8.90;99.90
18880;DHT22;9572;52.378;13.404;2024-03-02T08:31:16;8.90;99.90
18880;DHT22;9572;52.378;13.404;2024-03-02T08:33:43;9.00;99.90
18880;DHT22;9572;52.378;13.404;2024-03-02T08:36:12;9.00;99.90
18880;DHT22;9572;52.378;13.404;2024-03-02T08:38:38;9.00;99.90
18880;DHT22;9572;52.378;13.404;2024-03-02T08:41:05;9.10;99.90
18880;DHT22;9572;52.378;13.404;2024-03-02T08:43:33;9.10;99.90
18880;DHT22;9572;52.378;13.404;2024-03-02T08:46:00;9.10;99.90
18880;DHT22;9572;52.378;13.404;2024-03-02T08:48:27;9.10;99.90
18880;DHT22;9572;52.378;13.404;2024-03-02T08:50:54;9.10;99.90
18880;DHT22;9572;52.378;13.404;2024-03-02T08:53:22;9.10;99.90
18880;DHT22;9572;52.378;13.404;2024-03-02T08:55:49;9.10;99.90
18880;DHT22;9572;52.378;13.404;2024-03-02T08:58:16;9.10;99.90
18880;DHT22;9572;52.378;13.404;2024-03-02T09:00:43;9.10;99.90
18880;DHT22;9572;52.378;13.404;2024-03-02T09:03:10;9.10;99.90
18880;DHT22;9572;52.378;13.404;2024-03-02T09:05:37;9.20;99.90
18880;DHT22;9572;52.378;13.404;2024-03-02T09:08:04;9.20;99.90
18880;DHT22;9572;52.378;13.404;2024-03-02T09:10:34;9.30;99.90
18880;DHT22;9572;52.378;13.404;2024-03-02T09:13:00;9.30;99.90
18880;DHT22;9572;52.378;13.404;2024-03-02T09:15:28;9.30;99.90
18880;DHT22;9572;52.378;13.404;2024-03-02T09:17:54;9.30;99.90
18880;DHT22;9572;52.378;13.404;2024-03-02T09:20:22;9.30;99.90
18880;DHT22;9572;52.378;13.404;2024-03-02T09:22:48;9.40;99.90
18880;DHT22;9572;52.378;13.404;2024-03-02T09:25:15;9.40;99.90
18880;DHT22;9572;52.378;13.404;2024-03-02T09:27:43;9.40;99.90
18880;DHT22;9572;52.378;13.404;2024-03-02T09:30:11;9.40;99.90
18880;DHT22;9572;52.378;13.404;2024-03-02T09:32:39;9.40;99.90
18880;DHT22;9572;52.378;13.404;2024-03-02T09:35:06;9.50;99.90
18880;DHT22;9572;52.378;13.404;2024-03-02T09:37:34;9.50;99.90
18880;DHT22;9572;52.378;13.404;2024-03-02T09:40:01;9.60;99.90
18880;DHT22;9572;52.378;13.404;2024-03-02T09:42:28;9.60;99.90
18880;DHT22;9572;52.378;13.404;2024-03-02T09:44:57;9.70;99.90
18880;DHT22;9572;52.378;13.404;2024-03-02T09:47:24;9.70;99.90
18880;DHT22;9572;52.378;13.404;2024-03-02T09:49:51;9.70;99.90
18880;DHT22;9572;52.378;13.404;2024-03-02T09:52:19;9.80;99.90
18880;DHT22;9572;52.378;13.404;2024-03-02T09:54:47;10.00;99.90
18880;DHT22;9572;52.378;13.404;2024-03-02T09:57:15;10.20;99.90
18880;DHT22;9572;52.378;13.404;2024-03-02T09:59:42;10.30;99.90
18880;DHT22;9572;52.378;13.404;2024-03-02T10:02:12;10.50;99.90
18880;DHT22;9572;52.378;13.404;2024-03-02T10:04:39;10.50;99.90
18880;DHT22;9572;52.378;13.404;2024-03-02T10:07:13;10.60;99.90
18880;DHT22;9572;52.378;13.404;2024-03-02T10:09:40;10.70;99.90
18880;DHT22;9572;52.378;13.404;2024-03-02T10:12:09;10.70;99.90
18880;DHT22;9572;52.378;13.404;2024-03-02T10:14:37;10.80;99.90
18880;DHT22;9572;52.378;13.404;2024-03-02T10:17:05;10.90;99.90
18880;DHT22;9572;52.378;13.404;2024-03-02T10:19:34;11.00;99.90
18880;DHT22;9572;52.378;13.404;2024-03-02T10:22:03;10.90;99.90
18880;DHT22;9572;52.378;13.404;2024-03-02T10:24:42;10.90;99.90
18880;DHT22;9572;52.378;13.404;2024-03-02T10:27:14;11.00;99.90
18880;DHT22;9572;52.378;13.404;2024-03-02T10:29:41;11.10;99.90
18880;DHT22;9572;52.378;13.404;2024-03-02T10:32:09;11.30;99.90
18880;DHT22;9572;52.378;13.404;2024-03-02T10:34:39;11.30;99.90
18880;DHT22;9572;52.378;13.404;2024-03-02T10:37:07;11.30;99.90
18880;DHT22;9572;52.378;13.404;2024-03-02T10:39:35;11.30;99.90
18880;DHT22;9572;52.378;13.404;2024-03-02T10:42:02;11.40;99.90
18880;DHT22;9572;52.378;13.404;2024-03-02T10:44:30;11.40;99.90
18880;DHT22;9572;52.378;13.404;2024-03-02T10:47:00;11.40;99.90
18880;DHT22;9572;52.378;13.404;2024-03-02T10:49:29;11.40;99.90
18880;DHT22;9572;52.378;13.404;2024-03-02T10:51:58;11.50;99.90
18880;DHT22;9572;52.378;13.404;2024-03-02T10:54:25;11.60;99.90
18880;DHT22;9572;52.378;13.404;2024-03-02T10:56:58;11.60;99.90
18880;DHT22;9572;52.378;13.404;2024-03-02T10:59:28;11.60;99.90
18880;DHT22;9572;52.378;13.404;2024-03-02T11:01:57;11.80;99.90
18880;DHT22;9572;52.378;13.404;2024-03-02T11:04:26;11.80;99.90
18880;DHT22;9572;52.378;13.404;2024-03-02T11:06:58;12.00;99.90
18880;DHT22;9572;52.378;13.404;2024-03-02T11:09:27;12.30;99.90
18880;DHT22;9572;52.378;13.404;2024-03-02T11:12:00;12.40;99.90
18880;DHT22;9572;52.378;13.404;2024-03-02T11:14:30;12.50;99.90
18880;DHT22;9572;52.378;13.404;2024-03-02T11:16:59;12.40;99.90
18880;DHT22;9572;52.378;13.404;2024-03-02T11:19:27;12.60;99.90
18880;DHT22;9572;52.378;13.404;2024-03-02T11:21:55;12.70;99.90
18880;DHT22;9572;52.378;13.404;2024-03-02T11:24:31;12.80;99.90
18880;DHT22;9572;52.378;13.404;2024-03-02T11:27:01;12.80;99.90
18880;DHT22;9572;52.378;13.404;2024-03-02T11:29:46;12.80;99.90
18880;DHT22;9572;52.378;13.404;2024-03-02T11:32:20;12.80;99.90
18880;DHT22;9572;52.378;13.404;2024-03-02T11:34:50;12.90;99.90
18880;DHT22;9572;52.378;13.404;2024-03-02T11:37:17;13.00;99.90
18880;DHT22;9572;52.378;13.404;2024-03-02T11:39:49;13.10;99.90
18880;DHT22;9572;52.378;13.404;2024-03-02T11:42:17;13.20;99.90
18880;DHT22;9572;52.378;13.404;2024-03-02T11:44:45;13.20;99.90
18880;DHT22;9572;52.378;13.404;2024-03-02T11:47:14;13.20;99.90
18880;DHT22;9572;52.378;13.404;2024-03-02T11:49:43;13.30;99.90
18880;DHT22;9572;52.378;13.404;2024-03-02T11:52:11;13.30;99.90
18880;DHT22;9572;52.378;13.404;2024-03-02T11:54:39;13.20;99.90
18880;DHT22;9572;52.378;13.404;2024-03-02T11:57:13;13.30;99.90
18880;DHT22;9572;52.378;13.404;2024-03-02T11:59:40;13.40;99.90
18880;DHT22;9572;52.378;13.404;2024-03-02T12:02:14;13.40;99.90
18880;DHT22;9572;52.378;13.404;2024-03-02T12:04:42;13.30;99.90
18880;DHT22;9572;52.378;13.404;2024-03-02T12:07:11;13.10;99.90
18880;DHT22;9572;52.378;13.404;2024-03-02T12:09:37;13.10;99.90
18880;DHT22;9572;52.378;13.404;2024-03-02T12:12:05;13.10;99.90
18880;DHT22;9572;52.378;13.404;2024-03-02T12:14:35;13.10;99.90
18880;DHT22;9572;52.378;13.404;2024-03-02T12:17:02;13.10;99.90
18880;DHT22;9572;52.378;13.404;2024-03-02T12:19:30;13.10;99.90
18880;DHT22;9572;52.378;13.404;2024-03-02T12:21:57;13.20;99.90
18880;DHT22;9572;52.378;13.404;2024-03-02T12:24:27;13.20;99.90
18880;DHT22;9572;52.378;13.404;2024-03-02T12:26:54;13.30;99.90
18880;DHT22;9572;52.378;13.404;2024-03-02T12:29:22;13.20;99.90
18880;DHT22;9572;52.378;13.404;2024-03-02T12:31:51;13.20;99.90
18880;DHT22;9572;52.378;13.404;2024-03-02T12:34:19;13.30;99.90
18880;DHT22;9572;52.378;13.404;2024-03-02T12:36:46;13.50;99.90
18880;DHT22;9572;52.378;13.404;2024-03-02T12:39:15;13.60;99.90
18880;DHT22;9572;52.378;13.404;2024-03-02T12:41:42;13.40;99.90
18880;DHT22;9572;52.378;13.404;2024-03-02T12:44:09;13.30;99.90
18880;DHT22;9572;52.378;13.404;2024-03-02T12:46:36;13.30;99.90
18880;DHT22;9572;52.378;13.404;2024-03-02T12:49:10;13.30;99.90
18880;DHT22;9572;52.378;13.404;2024-03-02T12:51:37;13.50;99.90
18880;DHT22;9572;52.378;13.404;2024-03-02T12:54:06;13.70;99.90
18880;DHT22;9572;52.378;13.404;2024-03-02T12:56:33;13.80;99.90
18880;DHT22;9572;52.378;13.404;2024-03-02T12:59:00;14.00;99.90
18880;DHT22;9572;52.378;13.404;2024-03-02T13:01:27;14.10;99.90
18880;DHT22;9572;52.378;13.404;2024-03-02T13:03:55;14.10;99.90
18880;DHT22;9572;52.378;13.404;2024-03-02T13:06:24;14.10;99.90
18880;DHT22;9572;52.378;13.404;2024-03-02T13:08:53;14.30;99.90
18880;DHT22;9572;52.378;13.404;2024-03-02T13:11:21;14.40;99.90
18880;DHT22;9572;52.378;13.404;2024-03-02T13:13:48;14.50;99.90
18880;DHT22;9572;52.378;13.404;2024-03-02T13:16:15;14.50;99.90
18880;DHT22;9572;52.378;13.404;2024-03-02T13:18:45;14.70;99.90
18880;DHT22;9572;52.378;13.404;2024-03-02T13:21:11;14.50;99.90
18880;DHT22;9572;52.378;13.404;2024-03-02T13:23:40;14.60;99.90
18880;DHT22;9572;52.378;13.404;2024-03-02T13:26:06;14.60;99.90
18880;DHT22;9572;52.378;13.404;2024-03-02T13:28:36;14.70;99.90
18880;DHT22;9572;52.378;13.404;2024-03-02T13:31:03;14.80;99.90
18880;DHT22;9572;52.378;13.404;2024-03-02T13:33:31;15.10;99.90
18880;DHT22;9572;52.378;13.404;2024-03-02T13:35:58;15.20;99.90
18880;DHT22;9572;52.378;13.404;2024-03-02T13:38:27;15.20;99.90
18880;DHT22;9572;52.378;13.404;2024-03-02T13:40:55;15.20;99.90
18880;DHT22;9572;52.378;13.404;2024-03-02T13:43:22;15.30;99.90
18880;DHT22;9572;52.378;13.404;2024-03-02T13:45:49;15.40;99.90
18880;DHT22;9572;52.378;13.404;2024-03-02T13:48:17;15.50;99.90
18880;DHT22;9572;52.378;13.404;2024-03-02T13:50:44;15.40;99.90
18880;DHT22;9572;52.378;13.404;2024-03-02T13:53:12;15.40;99.90
18880;DHT22;9572;52.378;13.404;2024-03-02T13:55:39;15.50;99.90
18880;DHT22;9572;52.378;13.404;2024-03-02T13:58:08;15.50;99.90
18880;DHT22;9572;52.378;13.404;2024-03-02T14:00:36;15.40;99.90
18880;DHT22;9572;52.378;13.404;2024-03-02T14:03:04;15.20;99.90
18880;DHT22;9572;52.378;13.404;2024-03-02T14:05:31;15.10;99.90
18880;DHT22;9572;52.378;13.404;2024-03-02T14:07:58;15.10;99.90
18880;DHT22;9572;52.378;13.404;2024-03-02T14:10:26;14.90;99.90
18880;DHT22;9572;52.378;13.404;2024-03-02T14:13:22;14.60;99.90
18880;DHT22;9572;52.378;13.404;2024-03-02T14:16:14;14.50;99.90
18880;DHT22;9572;52.378;13.404;2024-03-02T14:22:03;14.50;99.90
18880;DHT22;9572;52.378;13.404;2024-03-02T14:24:30;14.40;99.90
18880;DHT22;9572;52.378;13.404;2024-03-02T14:26:57;14.40;99.90
18880;DHT22;9572;52.378;13.404;2024-03-02T14:29:28;14.30;99.90
18880;DHT22;9572;52.378;13.404;2024-03-02T14:31:55;14.30;99.90
18880;DHT22;9572;52.378;13.404;2024-03-02T14:34:22;14.30;99.90
18880;DHT22;9572;52.378;13.404;2024-03-02T14:36:49;14.40;99.90
18880;DHT22;9572;52.378;13.404;2024-03-02T14:39:16;14.50;99.90
18880;DHT22;9572;52.378;13.404;2024-03-02T14:41:45;14.50;99.90
18880;DHT22;9572;52.378;13.404;2024-03-02T14:44:11;14.30;99.90
18880;DHT22;9572;52.378;13.404;2024-03-02T14:46:40;14.30;99.90
18880;DHT22;9572;52.378;13.404;2024-03-02T14:49:06;14.30;99.90
18880;DHT22;9572;52.378;13.404;2024-03-02T14:51:34;14.20;99.90
18880;DHT22;9572;52.378;13.404;2024-03-02T14:54:00;14.10;99.90
18880;DHT22;9572;52.378;13.404;2024-03-02T14:56:28;14.00;99.90
18880;DHT22;9572;52.378;13.404;2024-03-02T14:58:55;13.90;99.90
18880;DHT22;9572;52.378;13.404;2024-03-02T15:01:22;13.90;99.90
18880;DHT22;9572;52.378;13.404;2024-03-02T15:03:51;13.90;99.90
18880;DHT22;9572;52.378;13.404;2024-03-02T15:06:18;13.80;99.90
18880;DHT22;9572;52.378;13.404;2024-03-02T15:08:45;13.80;99.90
18880;DHT22;9572;52.378;13.404;2024-03-02T15:11:12;13.80;99.90
18880;DHT22;9572;52.378;13.404;2024-03-02T15:13:39;13.70;99.90
18880;DHT22;9572;52.378;13.404;2024-03-02T15:19:29;13.50;99.90
18880;DHT22;9572;52.378;13.404;2024-03-02T15:21:56;13.50;99.90
18880;DHT22;9572;52.378;13.404;2024-03-02T15:24:23;13.40;99.90
18880;DHT22;9572;52.378;13.404;2024-03-02T15:26:50;13.30;99.90
18880;DHT22;9572;52.378;13.404;2024-03-02T15:29:45;13.30;99.90
18880;DHT22;9572;52.378;13.404;2024-03-02T15:32:13;13.20;99.90
18880;DHT22;9572;52.378;13.404;2024-03-02T15:34:41;13.20;99.90
18880;DHT22;9572;52.378;13.404;2024-03-02T15:37:08;13.00;99.90
18880;DHT22;9572;52.378;13.404;2024-03-02T15:40:00;12.90;99.90
18880;DHT22;9572;52.378;13.404;2024-03-02T15:42:31;12.80;99.90
18880;DHT22;9572;52.378;13.404;2024-03-02T15:44:58;12.70;99.90
18880;DHT22;9572;52.378;13.404;2024-03-02T15:47:25;12.60;99.90
18880;DHT22;9572;52.378;13.404;2024-03-02T15:49:54;12.50;99.90
18880;DHT22;9572;52.378;13.404;2024-03-02T15:52:20;12.40;99.90